Time,TemperatureF,DewpointF,PressureIn,WindDirection,WindDirectionDegrees,WindSpeedMPH,WindSpeedGustMPH,Humidity,HourlyPrecipIn,Conditions,Clouds,dailyrainin,SoftwareType,DateUTC
2013-03-01 00:00:00,31.9,31.1,29.63,WNW,296,0.0,1.0,97,0.00,,,0.25,Wunderground v.1.15,2013-03-01 05:00:00,
2013-03-01 00:05:00,31.9,31.1,29.63,WNW,296,0.0,1.0,97,0.00,,,0.25,Wunderground v.1.15,2013-03-01 05:05:00,
2013-03-01 00:15:00,31.9,31.1,29.63,NNW,336,1.0,1.0,97,0.00,,,0.00,Wunderground v.1.15,2013-03-01 05:15:00,
2013-03-01 00:20:00,31.9,31.1,29.63,NNW,336,1.0,1.0,97,0.00,,,0.00,Wunderground v.1.15,2013-03-01 05:20:00,
2013-03-01 00:25:00,31.9,31.1,29.63,NNW,336,1.0,2.0,97,0.00,,,0.00,Wunderground v.1.15,2013-03-01 05:25:00,
2013-03-01 00:30:00,32.1,31.3,29.63,NNW,336,1.0,1.0,97,0.00,,,0.00,Wunderground v.1.15,2013-03-01 05:30:00,
2013-03-01 00:35:00,32.1,31.3,29.63,North,0,1.0,2.0,97,0.00,,,0.00,Wunderground v.1.15,2013-03-01 05:35:00,
2013-03-01 00:45:00,32.1,31.1,29.63,North,359,2.0,3.0,96,0.00,,,0.00,Wunderground v.1.15,2013-03-01 05:45:00,
2013-03-01 00:50:00,32.1,31.1,29.63,North,359,2.0,2.0,96,0.00,,,0.00,Wunderground v.1.15,2013-03-01 05:50:00,
2013-03-01 00:55:00,32.1,31.1,29.64,North,357,1.0,3.0,96,0.00,,,0.00,Wunderground v.1.15,2013-03-01 05:55:00,
2013-03-01 01:00:00,32.1,31.1,29.64,North,357,1.0,3.0,96,0.00,,,0.00,Wunderground v.1.15,2013-03-01 06:00:00,
2013-03-01 01:05:00,31.9,30.9,29.64,North,357,1.0,5.0,96,0.00,,,0.00,Wunderground v.1.15,2013-03-01 06:05:00,
2013-03-01 01:10:00,31.9,30.9,29.64,North,357,2.0,3.0,96,0.00,,,0.00,Wunderground v.1.15,2013-03-01 06:10:00,
2013-03-01 01:15:00,31.9,30.9,29.64,North,357,2.0,4.0,96,0.00,,,0.00,Wunderground v.1.15,2013-03-01 06:15:00,
2013-03-01 01:20:00,31.9,30.6,29.64,North,357,3.0,3.0,95,0.00,,,0.00,Wunderground v.1.15,2013-03-01 06:20:00,
2013-03-01 01:25:00,31.9,30.6,29.64,North,357,3.0,5.0,95,0.00,,,0.00,Wunderground v.1.15,2013-03-01 06:25:00,
2013-03-01 01:30:00,31.8,30.5,29.64,North,357,3.0,4.0,95,0.00,,,0.00,Wunderground v.1.15,2013-03-01 06:30:00,
2013-03-01 01:40:00,31.8,30.8,29.64,North,357,3.0,4.0,96,0.00,,,0.00,Wunderground v.1.15,2013-03-01 06:40:00,
2013-03-01 01:45:00,31.8,30.8,29.64,North,357,3.0,4.0,96,0.00,,,0.00,Wunderground v.1.15,2013-03-01 06:45:00,
2013-03-01 01:50:00,31.8,30.8,29.64,North,357,2.0,3.0,96,0.00,,,0.00,Wunderground v.1.15,2013-03-01 06:50:00,
2013-03-01 01:55:00,31.9,30.9,29.64,North,357,1.0,3.0,96,0.00,,,0.00,Wunderground v.1.15,2013-03-01 06:55:00,
2013-03-01 02:00:00,31.9,30.9,29.64,North,357,1.0,1.0,96,0.00,,,0.00,Wunderground v.1.15,2013-03-01 07:00:00,
2013-03-01 02:05:00,31.9,30.9,29.64,North,357,0.0,3.0,96,0.00,,,0.00,Wunderground v.1.15,2013-03-01 07:05:00,
2013-03-01 02:10:00,31.9,30.9,29.64,North,357,0.0,3.0,96,0.00,,,0.00,Wunderground v.1.15,2013-03-01 07:10:00,
2013-03-01 02:15:00,31.9,30.9,29.64,North,357,1.0,3.0,96,0.00,,,0.00,Wunderground v.1.15,2013-03-01 07:15:00,
2013-03-01 02:20:00,31.9,30.9,29.64,North,357,1.0,3.0,96,0.00,,,0.00,Wunderground v.1.15,2013-03-01 07:20:00,
2013-03-01 02:25:00,31.9,30.9,29.64,North,357,1.0,3.0,96,0.00,,,0.00,Wunderground v.1.15,2013-03-01 07:25:00,
2013-03-01 02:30:00,31.9,30.9,29.64,North,357,2.0,2.0,96,0.00,,,0.00,Wunderground v.1.15,2013-03-01 07:30:00,
2013-03-01 02:35:00,31.9,31.1,29.64,North,357,1.0,3.0,97,0.00,,,0.00,Wunderground v.1.15,2013-03-01 07:35:00,
2013-03-01 02:40:00,31.8,31.0,29.64,North,357,1.0,5.0,97,0.00,,,0.00,Wunderground v.1.15,2013-03-01 07:40:00,
2013-03-01 02:45:00,31.8,30.8,29.64,North,357,1.0,5.0,96,0.00,,,0.00,Wunderground v.1.15,2013-03-01 07:45:00,
2013-03-01 02:50:00,31.6,30.6,29.64,North,357,2.0,3.0,96,0.00,,,0.00,Wunderground v.1.15,2013-03-01 07:50:00,
2013-03-01 02:55:00,31.6,30.6,29.64,North,357,2.0,3.0,96,0.00,,,0.00,Wunderground v.1.15,2013-03-01 07:55:00,
2013-03-01 03:00:00,31.6,30.6,29.64,North,357,2.0,2.0,96,0.00,,,0.00,Wunderground v.1.15,2013-03-01 08:00:00,
2013-03-01 03:05:00,31.6,30.6,29.64,North,357,2.0,6.0,96,0.00,,,0.00,Wunderground v.1.15,2013-03-01 08:05:00,
2013-03-01 03:10:00,31.6,30.6,29.65,North,357,1.0,3.0,96,0.00,,,0.00,Wunderground v.1.15,2013-03-01 08:10:00,
2013-03-01 03:20:00,31.6,30.3,29.65,North,357,1.0,3.0,95,0.00,,,0.00,Wunderground v.1.15,2013-03-01 08:20:00,
2013-03-01 03:25:00,31.8,30.5,29.65,North,357,1.0,3.0,95,0.00,,,0.00,Wunderground v.1.15,2013-03-01 08:25:00,
2013-03-01 03:30:00,31.8,30.5,29.65,North,357,3.0,3.0,95,0.00,,,0.00,Wunderground v.1.15,2013-03-01 08:30:00,
2013-03-01 03:35:00,31.8,30.5,29.65,North,357,3.0,3.0,95,0.00,,,0.00,Wunderground v.1.15,2013-03-01 08:35:00,
2013-03-01 03:40:00,31.8,30.3,29.65,North,357,2.0,3.0,94,0.00,,,0.00,Wunderground v.1.15,2013-03-01 08:40:00,
2013-03-01 03:45:00,31.8,30.3,29.65,North,357,2.0,6.0,94,0.00,,,0.00,Wunderground v.1.15,2013-03-01 08:45:00,
2013-03-01 03:55:00,31.8,30.3,29.65,North,357,3.0,3.0,94,0.00,,,0.00,Wunderground v.1.15,2013-03-01 08:55:00,
2013-03-01 04:05:00,31.8,30.3,29.65,North,357,3.0,5.0,94,0.00,,,0.00,Wunderground v.1.15,2013-03-01 09:05:00,
2013-03-01 04:10:00,31.8,30.3,29.66,North,357,3.0,3.0,94,0.00,,,0.00,Wunderground v.1.15,2013-03-01 09:10:00,
2013-03-01 04:15:00,31.8,30.3,29.66,North,357,4.0,6.0,94,0.00,,,0.00,Wunderground v.1.15,2013-03-01 09:15:00,
2013-03-01 04:20:00,31.8,30.0,29.66,North,357,5.0,5.0,93,0.00,,,0.00,Wunderground v.1.15,2013-03-01 09:20:00,
2013-03-01 04:25:00,31.8,30.3,29.66,North,357,4.0,5.0,94,0.00,,,0.00,Wunderground v.1.15,2013-03-01 09:25:00,
2013-03-01 04:30:00,31.8,30.3,29.66,North,357,4.0,4.0,94,0.00,,,0.00,Wunderground v.1.15,2013-03-01 09:30:00,
2013-03-01 04:35:00,31.8,30.3,29.66,North,357,4.0,9.0,94,0.00,,,0.00,Wunderground v.1.15,2013-03-01 09:35:00,
2013-03-01 04:40:00,31.8,30.3,29.67,North,357,3.0,9.0,94,0.00,,,0.00,Wunderground v.1.15,2013-03-01 09:40:00,
2013-03-01 04:45:00,31.6,30.3,29.67,North,357,5.0,9.0,95,0.00,,,0.00,Wunderground v.1.15,2013-03-01 09:45:00,
2013-03-01 04:50:00,31.6,30.3,29.67,North,357,3.0,3.0,95,0.00,,,0.00,Wunderground v.1.15,2013-03-01 09:50:00,
2013-03-01 04:55:00,31.5,30.2,29.68,North,357,2.0,9.0,95,0.00,,,0.00,Wunderground v.1.15,2013-03-01 09:55:00,
2013-03-01 05:00:00,31.5,30.2,29.68,North,357,2.0,9.0,95,0.00,,,0.00,Wunderground v.1.15,2013-03-01 10:00:00,
2013-03-01 05:05:00,31.3,30.0,29.68,North,357,3.0,9.0,95,0.00,,,0.00,Wunderground v.1.15,2013-03-01 10:05:00,
2013-03-01 05:15:00,31.3,30.3,29.68,North,357,3.0,9.0,96,0.00,,,0.00,Wunderground v.1.15,2013-03-01 10:15:00,
2013-03-01 05:20:00,31.2,30.2,29.68,North,357,3.0,9.0,96,0.00,,,0.00,Wunderground v.1.15,2013-03-01 10:20:00,
2013-03-01 05:25:00,31.2,30.2,29.69,North,357,3.0,9.0,96,0.00,,,0.00,Wunderground v.1.15,2013-03-01 10:25:00,
2013-03-01 05:30:00,31.2,30.2,29.69,North,357,4.0,4.0,96,0.00,,,0.00,Wunderground v.1.15,2013-03-01 10:30:00,
2013-03-01 05:35:00,31.0,30.0,29.69,North,357,4.0,6.0,96,0.00,,,0.00,Wunderground v.1.15,2013-03-01 10:35:00,
2013-03-01 05:40:00,31.0,30.0,29.69,North,357,4.0,9.0,96,0.00,,,0.00,Wunderground v.1.15,2013-03-01 10:40:00,
2013-03-01 05:50:00,31.0,30.0,29.69,North,357,2.0,2.0,96,0.00,,,0.00,Wunderground v.1.15,2013-03-01 10:50:00,
2013-03-01 06:00:00,30.9,29.9,29.70,North,357,4.0,4.0,96,0.00,,,0.00,Wunderground v.1.15,2013-03-01 11:00:00,
2013-03-01 06:05:00,30.7,29.7,29.70,North,357,3.0,9.0,96,0.00,,,0.00,Wunderground v.1.15,2013-03-01 11:05:00,
2013-03-01 06:10:00,30.7,29.4,29.70,North,357,3.0,9.0,95,0.00,,,0.00,Wunderground v.1.15,2013-03-01 11:10:00,
2013-03-01 06:20:00,30.6,29.3,29.70,North,357,4.0,9.0,95,0.00,,,0.00,Wunderground v.1.15,2013-03-01 11:20:00,
2013-03-01 06:30:00,30.6,29.3,29.70,North,357,3.0,3.0,95,0.00,,,0.00,Wunderground v.1.15,2013-03-01 11:30:00,
2013-03-01 06:40:00,30.6,29.1,29.70,North,357,2.0,9.0,94,0.00,,,0.00,Wunderground v.1.15,2013-03-01 11:40:00,
2013-03-01 06:50:00,30.7,29.2,29.70,North,357,4.0,9.0,94,0.00,,,0.00,Wunderground v.1.15,2013-03-01 11:50:00,
2013-03-01 07:00:00,30.7,29.2,29.71,North,357,5.0,9.0,94,0.00,,,0.00,Wunderground v.1.15,2013-03-01 12:00:00,
2013-03-01 07:10:00,30.7,28.9,29.71,North,357,5.0,5.0,93,0.00,,,0.00,Wunderground v.1.15,2013-03-01 12:10:00,
2013-03-01 07:15:00,30.7,28.9,29.71,North,357,6.0,6.0,93,0.00,,,0.00,Wunderground v.1.15,2013-03-01 12:15:00,
2013-03-01 07:20:00,30.7,28.7,29.71,North,357,5.0,9.0,92,0.00,,,0.00,Wunderground v.1.15,2013-03-01 12:20:00,
2013-03-01 07:25:00,30.7,28.7,29.72,North,357,6.0,11.0,92,0.00,,,0.00,Wunderground v.1.15,2013-03-01 12:25:00,
2013-03-01 07:30:00,30.7,28.7,29.72,North,357,6.0,9.0,92,0.00,,,0.00,Wunderground v.1.15,2013-03-01 12:30:00,
2013-03-01 07:35:00,30.7,28.7,29.72,North,357,6.0,9.0,92,0.00,,,0.00,Wunderground v.1.15,2013-03-01 12:35:00,
2013-03-01 07:40:00,30.7,28.7,29.73,North,357,6.0,9.0,92,0.00,,,0.00,Wunderground v.1.15,2013-03-01 12:40:00,
2013-03-01 07:45:00,30.6,28.6,29.73,North,357,6.0,10.0,92,0.00,,,0.00,Wunderground v.1.15,2013-03-01 12:45:00,
2013-03-01 07:50:00,30.6,28.6,29.73,North,357,6.0,9.0,92,0.00,,,0.00,Wunderground v.1.15,2013-03-01 12:50:00,
2013-03-01 08:00:00,30.6,28.6,29.73,North,357,6.0,9.0,92,0.00,,,0.00,Wunderground v.1.15,2013-03-01 13:00:00,
2013-03-01 08:05:00,30.6,28.6,29.73,North,357,6.0,9.0,92,0.00,,,0.00,Wunderground v.1.15,2013-03-01 13:05:00,
2013-03-01 08:10:00,30.6,28.6,29.73,North,357,5.0,9.0,92,0.00,,,0.00,Wunderground v.1.15,2013-03-01 13:10:00,
2013-03-01 08:15:00,30.6,28.6,29.73,North,357,5.0,9.0,92,0.00,,,0.00,Wunderground v.1.15,2013-03-01 13:15:00,
2013-03-01 08:20:00,30.6,28.6,29.73,North,357,6.0,9.0,92,0.00,,,0.00,Wunderground v.1.15,2013-03-01 13:20:00,
2013-03-01 08:25:00,30.4,28.4,29.73,North,357,6.0,9.0,92,0.00,,,0.00,Wunderground v.1.15,2013-03-01 13:25:00,
2013-03-01 08:30:00,30.4,28.4,29.73,North,357,5.0,9.0,92,0.00,,,0.00,Wunderground v.1.15,2013-03-01 13:30:00,
2013-03-01 08:35:00,30.6,28.3,29.73,North,357,6.0,9.0,91,0.00,,,0.00,Wunderground v.1.15,2013-03-01 13:35:00,
2013-03-01 08:45:00,30.6,28.3,29.74,North,357,6.0,9.0,91,0.00,,,0.00,Wunderground v.1.15,2013-03-01 13:45:00,
2013-03-01 08:55:00,30.6,28.3,29.74,North,357,6.0,9.0,91,0.00,,,0.00,Wunderground v.1.15,2013-03-01 13:55:00,
2013-03-01 09:00:00,30.6,28.3,29.74,North,357,6.0,6.0,91,0.00,,,0.00,Wunderground v.1.15,2013-03-01 14:00:00,
2013-03-01 09:05:00,30.6,28.3,29.74,North,357,4.0,9.0,91,0.00,,,0.00,Wunderground v.1.15,2013-03-01 14:05:00,
2013-03-01 09:10:00,30.7,28.4,29.74,North,356,3.0,9.0,91,0.00,,,0.00,Wunderground v.1.15,2013-03-01 14:10:00,
2013-03-01 09:15:00,30.6,28.3,29.74,North,356,4.0,9.0,91,0.00,,,0.00,Wunderground v.1.15,2013-03-01 14:15:00,
2013-03-01 09:25:00,30.6,28.3,29.75,North,356,6.0,9.0,91,0.00,,,0.00,Wunderground v.1.15,2013-03-01 14:25:00,
2013-03-01 09:30:00,30.6,28.3,29.75,North,356,6.0,9.0,91,0.00,,,0.00,Wunderground v.1.15,2013-03-01 14:30:00,
2013-03-01 09:35:00,30.6,28.3,29.75,North,356,6.0,9.0,91,0.00,,,0.00,Wunderground v.1.15,2013-03-01 14:35:00,
2013-03-01 09:40:00,30.6,28.3,29.75,North,356,6.0,6.0,91,0.00,,,0.00,Wunderground v.1.15,2013-03-01 14:40:00,
2013-03-01 09:50:00,30.6,28.3,29.75,North,356,5.0,5.0,91,0.00,,,0.00,Wunderground v.1.15,2013-03-01 14:50:00,
2013-03-01 09:55:00,30.7,28.4,29.75,North,356,5.0,9.0,91,0.00,,,0.00,Wunderground v.1.15,2013-03-01 14:55:00,
2013-03-01 10:00:00,30.6,28.0,29.75,North,356,5.0,5.0,90,0.00,,,0.00,Wunderground v.1.15,2013-03-01 15:00:00,
2013-03-01 10:10:00,30.7,27.8,29.75,North,356,5.0,9.0,89,0.00,,,0.00,Wunderground v.1.15,2013-03-01 15:10:00,
2013-03-01 10:15:00,30.7,27.8,29.75,North,356,4.0,9.0,89,0.00,,,0.00,Wunderground v.1.15,2013-03-01 15:15:00,
2013-03-01 10:20:00,30.9,27.8,29.75,North,356,4.0,9.0,88,0.00,,,0.00,Wunderground v.1.15,2013-03-01 15:20:00,
2013-03-01 10:25:00,30.9,28.0,29.76,North,356,4.0,9.0,89,0.00,,,0.00,Wunderground v.1.15,2013-03-01 15:25:00,
2013-03-01 10:30:00,31.0,27.9,29.76,North,356,5.0,9.0,88,0.00,,,0.00,Wunderground v.1.15,2013-03-01 15:30:00,
2013-03-01 10:35:00,31.0,27.3,29.76,North,356,6.0,9.0,86,0.00,,,0.00,Wunderground v.1.15,2013-03-01 15:35:00,
2013-03-01 10:40:00,31.2,27.5,29.76,North,356,6.0,6.0,86,0.00,,,0.00,Wunderground v.1.15,2013-03-01 15:40:00,
2013-03-01 10:45:00,31.2,27.2,29.76,North,356,6.0,7.0,85,0.00,,,0.00,Wunderground v.1.15,2013-03-01 15:45:00,
2013-03-01 10:50:00,31.3,27.0,29.76,North,356,6.0,6.0,84,0.00,,,0.00,Wunderground v.1.15,2013-03-01 15:50:00,
2013-03-01 10:55:00,31.3,27.3,29.76,North,354,4.0,9.0,85,0.00,,,0.00,Wunderground v.1.15,2013-03-01 15:55:00,
2013-03-01 11:00:00,31.5,27.5,29.76,North,354,4.0,9.0,85,0.00,,,0.00,Wunderground v.1.15,2013-03-01 16:00:00,
2013-03-01 11:05:00,31.5,27.5,29.76,North,352,5.0,9.0,85,0.00,,,0.00,Wunderground v.1.15,2013-03-01 16:05:00,
2013-03-01 11:10:00,31.5,27.8,29.76,North,350,5.0,5.0,86,0.00,,,0.00,Wunderground v.1.15,2013-03-01 16:10:00,
2013-03-01 11:15:00,31.5,27.8,29.76,North,350,6.0,6.0,86,0.00,,,0.00,Wunderground v.1.15,2013-03-01 16:15:00,
2013-03-01 11:20:00,31.5,27.8,29.76,North,350,6.0,9.0,86,0.00,,,0.00,Wunderground v.1.15,2013-03-01 16:20:00,
2013-03-01 11:25:00,31.5,27.5,29.76,NNW,342,6.0,9.0,85,0.00,,,0.00,Wunderground v.1.15,2013-03-01 16:25:00,
2013-03-01 11:30:00,31.5,27.8,29.76,NNW,344,6.0,9.0,86,0.00,,,0.00,Wunderground v.1.15,2013-03-01 16:30:00,
2013-03-01 11:35:00,31.5,27.8,29.76,NNW,347,7.0,9.0,86,0.00,,,0.00,Wunderground v.1.15,2013-03-01 16:35:00,
2013-03-01 11:40:00,31.5,27.8,29.76,North,350,5.0,9.0,86,0.00,,,0.00,Wunderground v.1.15,2013-03-01 16:40:00,
2013-03-01 11:45:00,31.5,27.2,29.76,NNW,346,5.0,9.0,84,0.00,,,0.00,Wunderground v.1.15,2013-03-01 16:45:00,
2013-03-01 11:50:00,31.8,27.5,29.76,NNW,344,5.0,9.0,84,0.00,,,0.00,Wunderground v.1.15,2013-03-01 16:50:00,
2013-03-01 11:55:00,31.8,27.2,29.77,North,349,5.0,9.0,83,0.00,,,0.00,Wunderground v.1.15,2013-03-01 16:55:00,
2013-03-01 12:00:00,31.8,27.2,29.77,North,349,4.0,9.0,83,0.00,,,0.00,Wunderground v.1.15,2013-03-01 17:00:00,
2013-03-01 12:05:00,31.9,26.4,29.77,North,0,5.0,11.0,80,0.00,,,0.01,Wunderground v.1.15,2013-03-01 17:05:00,
2013-03-01 12:10:00,32.2,26.4,29.76,North,0,5.0,10.0,79,0.00,,,0.01,Wunderground v.1.15,2013-03-01 17:10:00,
2013-03-01 12:15:00,32.4,26.3,29.76,North,350,6.0,10.0,78,0.00,,,0.01,Wunderground v.1.15,2013-03-01 17:15:00,
2013-03-01 12:20:00,32.4,26.0,29.76,NNW,344,6.0,6.0,77,0.00,,,0.01,Wunderground v.1.15,2013-03-01 17:20:00,
2013-03-01 12:25:00,32.5,26.4,29.76,North,349,6.0,8.0,78,0.00,,,0.01,Wunderground v.1.15,2013-03-01 17:25:00,
2013-03-01 12:30:00,32.7,26.6,29.76,NNW,329,6.0,6.0,78,0.00,,,0.01,Wunderground v.1.15,2013-03-01 17:30:00,
2013-03-01 12:35:00,32.8,26.7,29.76,NNW,344,6.0,8.0,78,0.00,,,0.01,Wunderground v.1.15,2013-03-01 17:35:00,
2013-03-01 12:40:00,32.7,26.3,29.76,North,0,6.0,11.0,77,0.00,,,0.01,Wunderground v.1.15,2013-03-01 17:40:00,
2013-03-01 12:45:00,32.5,26.1,29.76,NNW,344,8.0,11.0,77,0.00,,,0.01,Wunderground v.1.15,2013-03-01 17:45:00,
2013-03-01 12:55:00,32.4,26.9,29.76,NNW,346,6.0,9.0,80,0.00,,,0.02,Wunderground v.1.15,2013-03-01 17:55:00,
2013-03-01 13:00:00,32.2,26.4,29.76,North,354,6.0,10.0,79,0.00,,,0.02,Wunderground v.1.15,2013-03-01 18:00:00,
2013-03-01 13:10:00,32.1,26.9,29.76,NNW,346,6.0,9.0,81,0.00,,,0.02,Wunderground v.1.15,2013-03-01 18:10:00,
2013-03-01 13:20:00,32.1,26.9,29.76,NNW,346,6.0,6.0,81,0.00,,,0.02,Wunderground v.1.15,2013-03-01 18:20:00,
2013-03-01 13:30:00,31.9,27.0,29.76,NNW,346,5.0,9.0,82,0.00,,,0.02,Wunderground v.1.15,2013-03-01 18:30:00,
2013-03-01 13:35:00,31.9,27.3,29.76,NNW,346,5.0,9.0,83,0.00,,,0.02,Wunderground v.1.15,2013-03-01 18:35:00,
2013-03-01 13:40:00,31.8,27.2,29.76,NNW,346,4.0,9.0,83,0.00,,,0.02,Wunderground v.1.15,2013-03-01 18:40:00,
2013-03-01 13:50:00,31.9,27.3,29.76,NNW,346,5.0,11.0,83,0.00,,,0.02,Wunderground v.1.15,2013-03-01 18:50:00,
2013-03-01 13:55:00,31.8,27.2,29.76,NNW,346,6.0,11.0,83,0.00,,,0.02,Wunderground v.1.15,2013-03-01 18:55:00,
2013-03-01 14:00:00,31.5,26.9,29.76,NNW,346,6.0,9.0,83,0.00,,,0.02,Wunderground v.1.15,2013-03-01 19:00:00,
2013-03-01 14:05:00,31.5,27.2,29.76,NNW,346,7.0,11.0,84,0.00,,,0.02,Wunderground v.1.15,2013-03-01 19:05:00,
2013-03-01 14:10:00,31.3,27.0,29.76,NNW,346,8.0,11.0,84,0.00,,,0.02,Wunderground v.1.15,2013-03-01 19:10:00,
2013-03-01 14:15:00,31.3,27.0,29.76,NNW,346,8.0,11.0,84,0.00,,,0.02,Wunderground v.1.15,2013-03-01 19:15:00,
2013-03-01 14:20:00,31.2,26.6,29.76,NNW,346,8.0,8.0,83,0.00,,,0.02,Wunderground v.1.15,2013-03-01 19:20:00,
2013-03-01 14:25:00,31.2,26.6,29.77,NNW,346,8.0,9.0,83,0.00,,,0.02,Wunderground v.1.15,2013-03-01 19:25:00,
2013-03-01 14:30:00,31.0,26.4,29.77,NNW,346,8.0,9.0,83,0.00,,,0.02,Wunderground v.1.15,2013-03-01 19:30:00,
2013-03-01 14:35:00,30.9,26.3,29.77,NNW,346,9.0,11.0,83,0.00,,,0.02,Wunderground v.1.15,2013-03-01 19:35:00,
2013-03-01 14:40:00,30.9,26.3,29.77,NNW,346,9.0,11.0,83,0.00,,,0.02,Wunderground v.1.15,2013-03-01 19:40:00,
2013-03-01 14:45:00,30.7,26.4,29.77,NNW,346,9.0,11.0,84,0.00,,,0.02,Wunderground v.1.15,2013-03-01 19:45:00,
2013-03-01 14:55:00,30.6,26.3,29.77,NNW,346,8.0,10.0,84,0.00,,,0.02,Wunderground v.1.15,2013-03-01 19:55:00,
2013-03-01 15:00:00,30.6,26.3,29.77,NNW,346,8.0,10.0,84,0.00,,,0.02,Wunderground v.1.15,2013-03-01 20:00:00,
2013-03-01 15:05:00,30.4,26.1,29.77,NNW,346,9.0,10.0,84,0.00,,,0.02,Wunderground v.1.15,2013-03-01 20:05:00,
2013-03-01 15:10:00,30.3,26.0,29.78,NNW,346,9.0,9.0,84,0.00,,,0.02,Wunderground v.1.15,2013-03-01 20:10:00,
2013-03-01 15:15:00,30.1,26.1,29.78,NNW,346,8.0,16.0,85,0.00,,,0.02,Wunderground v.1.15,2013-03-01 20:15:00,
2013-03-01 15:20:00,30.1,25.8,29.78,NNW,346,8.0,8.0,84,0.00,,,0.02,Wunderground v.1.15,2013-03-01 20:20:00,
2013-03-01 15:25:00,30.0,26.0,29.78,NNW,346,9.0,9.0,85,0.00,,,0.02,Wunderground v.1.15,2013-03-01 20:25:00,
2013-03-01 15:30:00,29.8,25.8,29.78,NNW,346,9.0,10.0,85,0.00,,,0.02,Wunderground v.1.15,2013-03-01 20:30:00,
2013-03-01 15:35:00,29.8,25.8,29.78,NNW,346,8.0,10.0,85,0.00,,,0.02,Wunderground v.1.15,2013-03-01 20:35:00,
2013-03-01 15:40:00,29.8,25.8,29.78,NNW,346,9.0,9.0,85,0.00,,,0.02,Wunderground v.1.15,2013-03-01 20:40:00,
2013-03-01 15:45:00,29.8,25.8,29.78,NNW,346,7.0,9.0,85,0.00,,,0.02,Wunderground v.1.15,2013-03-01 20:45:00,
2013-03-01 15:50:00,29.8,25.8,29.78,NNW,346,5.0,9.0,85,0.00,,,0.02,Wunderground v.1.15,2013-03-01 20:50:00,
2013-03-01 15:55:00,29.8,25.3,29.79,NNW,346,4.0,9.0,83,0.00,,,0.02,Wunderground v.1.15,2013-03-01 20:55:00,
2013-03-01 16:05:00,30.0,24.9,29.79,NNW,346,4.0,9.0,81,0.00,,,0.02,Wunderground v.1.15,2013-03-01 21:05:00,
2013-03-01 16:10:00,29.8,24.7,29.79,NNW,346,4.0,4.0,81,0.00,,,0.02,Wunderground v.1.15,2013-03-01 21:10:00,
2013-03-01 16:15:00,29.8,24.7,29.79,NNW,346,4.0,6.0,81,0.00,,,0.02,Wunderground v.1.15,2013-03-01 21:15:00,
2013-03-01 16:20:00,29.8,24.7,29.79,NNW,346,4.0,9.0,81,0.00,,,0.02,Wunderground v.1.15,2013-03-01 21:20:00,
2013-03-01 16:25:00,29.7,24.6,29.80,NNW,346,4.0,9.0,81,0.00,,,0.02,Wunderground v.1.15,2013-03-01 21:25:00,
2013-03-01 16:30:00,29.7,24.3,29.80,NNW,346,4.0,4.0,80,0.00,,,0.02,Wunderground v.1.15,2013-03-01 21:30:00,
2013-03-01 16:40:00,29.5,24.4,29.80,NNW,346,4.0,4.0,81,0.00,,,0.02,Wunderground v.1.15,2013-03-01 21:40:00,
2013-03-01 16:45:00,29.4,24.3,29.80,NNW,346,4.0,9.0,81,0.00,,,0.02,Wunderground v.1.15,2013-03-01 21:45:00,
2013-03-01 16:55:00,29.3,23.9,29.80,NNW,346,5.0,7.0,80,0.00,,,0.02,Wunderground v.1.15,2013-03-01 21:55:00,
2013-03-01 17:00:00,29.1,23.4,29.80,NNW,346,4.0,9.0,79,0.00,,,0.02,Wunderground v.1.15,2013-03-01 22:00:00,
2013-03-01 17:10:00,29.1,24.0,29.80,NNW,346,4.0,9.0,81,0.00,,,0.02,Wunderground v.1.15,2013-03-01 22:10:00,
2013-03-01 17:15:00,29.0,23.9,29.80,NNW,346,4.0,9.0,81,0.00,,,0.02,Wunderground v.1.15,2013-03-01 22:15:00,
2013-03-01 17:25:00,28.7,23.3,29.81,NNW,346,3.0,9.0,80,0.00,,,0.02,Wunderground v.1.15,2013-03-01 22:25:00,
2013-03-01 17:30:00,28.5,23.4,29.81,NNW,346,4.0,9.0,81,0.00,,,0.02,Wunderground v.1.15,2013-03-01 22:30:00,
2013-03-01 17:40:00,28.2,23.7,29.82,NNW,346,4.0,4.0,83,0.00,,,0.02,Wunderground v.1.15,2013-03-01 22:40:00,
2013-03-01 17:45:00,28.1,23.6,29.82,NNW,346,3.0,9.0,83,0.00,,,0.02,Wunderground v.1.15,2013-03-01 22:45:00,
2013-03-01 17:50:00,28.1,23.6,29.82,NNW,346,3.0,9.0,83,0.00,,,0.02,Wunderground v.1.15,2013-03-01 22:50:00,
2013-03-01 17:55:00,28.1,23.3,29.82,NNW,346,4.0,9.0,82,0.00,,,0.02,Wunderground v.1.15,2013-03-01 22:55:00,
2013-03-01 18:00:00,28.1,23.0,29.82,NNW,346,5.0,9.0,81,0.00,,,0.02,Wunderground v.1.15,2013-03-01 23:00:00,
2013-03-01 18:05:00,27.9,22.5,29.82,NNW,346,5.0,9.0,80,0.00,,,0.02,Wunderground v.1.15,2013-03-01 23:05:00,
2013-03-01 18:10:00,27.9,22.5,29.83,NNW,346,5.0,9.0,80,0.00,,,0.02,Wunderground v.1.15,2013-03-01 23:10:00,
2013-03-01 18:15:00,27.9,22.8,29.83,NNW,346,5.0,9.0,81,0.00,,,0.02,Wunderground v.1.15,2013-03-01 23:15:00,
2013-03-01 18:25:00,27.6,22.5,29.83,NNW,346,6.0,9.0,81,0.00,,,0.02,Wunderground v.1.15,2013-03-01 23:25:00,
2013-03-01 18:35:00,27.5,22.7,29.83,NNW,346,4.0,7.0,82,0.00,,,0.02,Wunderground v.1.15,2013-03-01 23:35:00,
2013-03-01 18:40:00,27.5,23.0,29.83,NNW,346,4.0,9.0,83,0.00,,,0.02,Wunderground v.1.15,2013-03-01 23:40:00,
2013-03-01 18:50:00,27.3,22.8,29.83,NNW,346,5.0,9.0,83,0.00,,,0.02,Wunderground v.1.15,2013-03-01 23:50:00,
2013-03-01 18:55:00,27.3,22.8,29.84,NNW,346,6.0,9.0,83,0.00,,,0.02,Wunderground v.1.15,2013-03-01 23:55:00,
2013-03-01 19:00:00,27.2,22.4,29.84,NNW,346,6.0,6.0,82,0.00,,,0.02,Wunderground v.1.15,2013-03-02 00:00:00,
2013-03-01 19:05:00,27.0,22.2,29.84,NNW,346,6.0,7.0,82,0.00,,,0.02,Wunderground v.1.15,2013-03-02 00:05:00,
2013-03-01 19:10:00,26.7,21.7,29.84,NNW,346,7.0,7.0,81,0.00,,,0.02,Wunderground v.1.15,2013-03-02 00:10:00,
2013-03-01 19:15:00,26.6,21.6,29.84,NNW,346,7.0,9.0,81,0.00,,,0.02,Wunderground v.1.15,2013-03-02 00:15:00,
2013-03-01 19:20:00,26.6,21.6,29.84,NNW,346,5.0,9.0,81,0.00,,,0.02,Wunderground v.1.15,2013-03-02 00:20:00,
2013-03-01 19:25:00,26.4,21.4,29.84,NNW,346,5.0,9.0,81,0.00,,,0.02,Wunderground v.1.15,2013-03-02 00:25:00,
2013-03-01 19:30:00,26.3,21.3,29.84,NNW,346,7.0,7.0,81,0.00,,,0.02,Wunderground v.1.15,2013-03-02 00:30:00,
2013-03-01 19:35:00,26.3,21.3,29.84,NNW,346,9.0,10.0,81,0.00,,,0.02,Wunderground v.1.15,2013-03-02 00:35:00,
2013-03-01 19:40:00,26.0,21.0,29.85,NNW,346,7.0,13.0,81,0.00,,,0.02,Wunderground v.1.15,2013-03-02 00:40:00,
2013-03-01 19:45:00,26.0,21.0,29.85,NNW,346,8.0,13.0,81,0.00,,,0.02,Wunderground v.1.15,2013-03-02 00:45:00,
2013-03-01 19:50:00,26.0,21.0,29.85,NNW,346,9.0,11.0,81,0.00,,,0.02,Wunderground v.1.15,2013-03-02 00:50:00,
2013-03-01 19:55:00,25.8,20.8,29.85,NNW,346,7.0,11.0,81,0.00,,,0.02,Wunderground v.1.15,2013-03-02 00:55:00,
2013-03-01 20:00:00,25.8,20.8,29.85,NNW,346,8.0,10.0,81,0.00,,,0.02,Wunderground v.1.15,2013-03-02 01:00:00,
2013-03-01 20:05:00,25.8,21.1,29.85,NNW,346,8.0,10.0,82,0.00,,,0.02,Wunderground v.1.15,2013-03-02 01:05:00,
2013-03-01 20:10:00,25.8,21.1,29.85,NNW,346,7.0,7.0,82,0.00,,,0.02,Wunderground v.1.15,2013-03-02 01:10:00,
2013-03-01 20:15:00,25.7,20.7,29.85,NNW,346,6.0,9.0,81,0.00,,,0.02,Wunderground v.1.15,2013-03-02 01:15:00,
2013-03-01 20:20:00,25.7,20.7,29.85,NNW,346,8.0,8.0,81,0.00,,,0.02,Wunderground v.1.15,2013-03-02 01:20:00,
2013-03-01 20:30:00,25.6,20.6,29.85,NNW,346,6.0,6.0,81,0.00,,,0.02,Wunderground v.1.15,2013-03-02 01:30:00,
2013-03-01 20:35:00,25.6,20.6,29.85,NNW,346,4.0,9.0,81,0.00,,,0.02,Wunderground v.1.15,2013-03-02 01:35:00,
2013-03-01 20:40:00,25.6,20.6,29.85,NNW,346,4.0,9.0,81,0.00,,,0.02,Wunderground v.1.15,2013-03-02 01:40:00,
2013-03-01 20:45:00,25.6,20.6,29.85,NNW,346,4.0,9.0,81,0.00,,,0.02,Wunderground v.1.15,2013-03-02 01:45:00,
2013-03-01 20:55:00,25.6,20.6,29.85,NNW,346,0.0,9.0,81,0.00,,,0.02,Wunderground v.1.15,2013-03-02 01:55:00,
2013-03-01 21:00:00,25.6,20.6,29.85,NNW,346,0.0,9.0,81,0.00,,,0.02,Wunderground v.1.15,2013-03-02 02:00:00,
2013-03-01 21:05:00,25.6,20.6,29.85,NNW,346,0.0,9.0,81,0.00,,,0.02,Wunderground v.1.15,2013-03-02 02:05:00,
2013-03-01 21:10:00,25.6,20.6,29.85,NNW,346,1.0,9.0,81,0.00,,,0.02,Wunderground v.1.15,2013-03-02 02:10:00,
2013-03-01 21:15:00,25.7,20.7,29.85,NNW,346,1.0,9.0,81,0.00,,,0.02,Wunderground v.1.15,2013-03-02 02:15:00,
2013-03-01 21:20:00,25.7,20.7,29.85,NNW,346,0.0,9.0,81,0.00,,,0.02,Wunderground v.1.15,2013-03-02 02:20:00,
2013-03-01 21:25:00,25.7,20.7,29.85,NNW,346,0.0,9.0,81,0.00,,,0.02,Wunderground v.1.15,2013-03-02 02:25:00,
2013-03-01 21:30:00,25.7,20.4,29.85,NNW,346,1.0,1.0,80,0.00,,,0.02,Wunderground v.1.15,2013-03-02 02:30:00,
2013-03-01 21:35:00,25.7,20.4,29.85,NNW,346,0.0,9.0,80,0.00,,,0.02,Wunderground v.1.15,2013-03-02 02:35:00,
2013-03-01 21:40:00,25.7,20.4,29.85,NNW,346,0.0,9.0,80,0.00,,,0.02,Wunderground v.1.15,2013-03-02 02:40:00,
2013-03-01 21:45:00,25.7,20.4,29.85,NNW,346,0.0,9.0,80,0.00,,,0.02,Wunderground v.1.15,2013-03-02 02:45:00,
2013-03-01 21:50:00,25.7,20.4,29.85,NNW,346,1.0,1.0,80,0.00,,,0.02,Wunderground v.1.15,2013-03-02 02:50:00,
2013-03-01 21:55:00,25.7,20.4,29.85,NNW,346,1.0,9.0,80,0.00,,,0.02,Wunderground v.1.15,2013-03-02 02:55:00,
2013-03-01 22:00:00,25.8,20.8,29.85,NNW,346,0.0,9.0,81,0.00,,,0.02,Wunderground v.1.15,2013-03-02 03:00:00,
2013-03-01 22:05:00,25.8,20.5,29.85,NNW,346,0.0,9.0,80,0.00,,,0.02,Wunderground v.1.15,2013-03-02 03:05:00,
2013-03-01 22:15:00,25.7,20.7,29.85,NNW,346,0.0,9.0,81,0.00,,,0.02,Wunderground v.1.15,2013-03-02 03:15:00,
2013-03-01 22:20:00,25.7,20.7,29.85,NNW,346,0.0,9.0,81,0.00,,,0.02,Wunderground v.1.15,2013-03-02 03:20:00,
2013-03-01 22:25:00,25.7,20.7,29.85,NNW,346,0.0,9.0,81,0.00,,,0.02,Wunderground v.1.15,2013-03-02 03:25:00,
2013-03-01 22:30:00,25.7,20.7,29.85,NNW,346,0.0,9.0,81,0.00,,,0.02,Wunderground v.1.15,2013-03-02 03:30:00,
2013-03-01 22:35:00,25.6,20.6,29.85,NNW,346,0.0,9.0,81,0.00,,,0.02,Wunderground v.1.15,2013-03-02 03:35:00,
2013-03-01 22:40:00,25.7,20.4,29.85,NNW,346,0.0,9.0,80,0.00,,,0.02,Wunderground v.1.15,2013-03-02 03:40:00,
2013-03-01 22:45:00,25.7,20.4,29.85,NNW,346,0.0,9.0,80,0.00,,,0.02,Wunderground v.1.15,2013-03-02 03:45:00,
2013-03-01 22:50:00,25.7,20.4,29.85,NNW,346,0.0,9.0,80,0.00,,,0.02,Wunderground v.1.15,2013-03-02 03:50:00,
2013-03-01 23:00:00,25.7,20.1,29.85,NNW,346,0.0,9.0,79,0.00,,,0.02,Wunderground v.1.15,2013-03-02 04:00:00,
2013-03-01 23:05:00,25.7,20.1,29.85,NNW,346,0.0,9.0,79,0.00,,,0.02,Wunderground v.1.15,2013-03-02 04:05:00,
2013-03-01 23:10:00,25.7,20.4,29.85,NNW,346,0.0,9.0,80,0.00,,,0.02,Wunderground v.1.15,2013-03-02 04:10:00,
2013-03-01 23:15:00,25.7,20.4,29.85,NNW,346,0.0,9.0,80,0.00,,,0.02,Wunderground v.1.15,2013-03-02 04:15:00,
2013-03-01 23:25:00,25.7,20.4,29.84,NNW,346,0.0,9.0,80,0.00,,,0.02,Wunderground v.1.15,2013-03-02 04:25:00,
2013-03-01 23:30:00,25.7,20.4,29.84,NNW,346,0.0,9.0,80,0.00,,,0.02,Wunderground v.1.15,2013-03-02 04:30:00,
2013-03-01 23:35:00,25.7,20.4,29.84,NNW,346,0.0,9.0,80,0.00,,,0.02,Wunderground v.1.15,2013-03-02 04:35:00,
2013-03-01 23:40:00,25.7,20.7,29.84,NNW,346,0.0,9.0,81,0.00,,,0.02,Wunderground v.1.15,2013-03-02 04:40:00,
2013-03-01 23:45:00,25.6,20.6,29.84,NNW,346,0.0,9.0,81,0.00,,,0.02,Wunderground v.1.15,2013-03-02 04:45:00,
2013-03-01 23:50:00,25.6,20.6,29.84,NNW,346,0.0,9.0,81,0.00,,,0.02,Wunderground v.1.15,2013-03-02 04:50:00,
2013-03-01 23:55:00,25.6,20.6,29.83,NNW,346,0.0,9.0,81,0.00,,,0.02,Wunderground v.1.15,2013-03-02 04:55:00,